sensor_id;sensor_type;location;lat;lon;timestamp;pressure;altitude;pressure_sealevel;temperature;humidity
73242;BME280;65659;49.234;-2.094;2023-04-15T00:02:18;100021.32;;;13.41;42.50
73242;BME280;65659;49.234;-2.094;2023-04-15T00:04:48;100020.52;;;13.31;42.61
73242;BME280;65659;49.234;-2.094;2023-04-15T00:07:08;100014.47;;;13.31;42.44
73242;BME280;65659;49.234;-2.094;2023-04-15T00:09:33;100031.00;;;13.27;42.69
73242;BME280;65659;49.234;-2.094;2023-04-15T00:11:58;100035.36;;;13.51;42.74
73242;BME280;65659;49.234;-2.094;2023-04-15T00:14:23;100035.95;;;12.72;43.08
73242;BME280;65659;49.234;-2.094;2023-04-15T00:16:48;100028.17;;;13.03;43.01
73242;BME280;65659;49.234;-2.094;2023-04-15T00:19:13;100051.15;;;12.79;43.14
73242;BME280;65659;49.234;-2.094;2023-04-15T00:21:38;100073.35;;;12.58;43.60
73242;BME280;65659;49.234;-2.094;2023-04-15T00:24:04;100070.07;;;12.89;42.86
73242;BME280;65659;49.234;-2.094;2023-04-15T00:26:29;100069.73;;;12.98;42.23
73242;BME280;65659;49.234;-2.094;2023-04-15T00:28:54;100068.32;;;13.10;42.84
73242;BME280;65659;49.234;-2.094;2023-04-15T00:31:19;100080.67;;;12.61;43.70
73242;BME280;65659;49.234;-2.094;2023-04-15T00:33:44;100072.23;;;12.97;43.31
73242;BME280;65659;49.234;-2.094;2023-04-15T00:36:09;100077.27;;;13.12;42.64
73242;BME280;65659;49.234;-2.094;2023-04-15T00:38:36;100077.87;;;13.18;42.26
73242;BME280;65659;49.234;-2.094;2023-04-15T00:41:00;100090.22;;;12.99;42.44
73242;BME280;65659;49.234;-2.094;2023-04-15T00:43:26;100088.47;;;13.15;42.46
73242;BME280;65659;49.234;-2.094;2023-04-15T00:45:51;100089.50;;;13.30;42.49
73242;BME280;65659;49.234;-2.094;2023-04-15T00:48:16;100092.21;;;13.09;42.55
73242;BME280;65659;49.234;-2.094;2023-04-15T00:50:40;100092.56;;;12.97;42.82
73242;BME280;65659;49.234;-2.094;2023-04-15T00:53:05;100098.51;;;12.79;43.38
73242;BME280;65659;49.234;-2.094;2023-04-15T00:55:31;100110.16;;;12.87;42.73
73242;BME280;65659;49.234;-2.094;2023-04-15T00:57:56;100107.49;;;13.14;41.71
73242;BME280;65659;49.234;-2.094;2023-04-15T01:00:21;100105.22;;;13.45;41.54
73242;BME280;65659;49.234;-2.094;2023-04-15T01:02:46;100103.65;;;13.57;41.74
73242;BME280;65659;49.234;-2.094;2023-04-15T01:05:12;100106.43;;;13.18;42.49
73242;BME280;65659;49.234;-2.094;2023-04-15T01:07:37;100107.85;;;13.20;42.38
73242;BME280;65659;49.234;-2.094;2023-04-15T01:10:03;100102.94;;;13.08;42.57
73242;BME280;65659;49.234;-2.094;2023-04-15T01:12:28;100108.12;;;12.98;42.51
73242;BME280;65659;49.234;-2.094;2023-04-15T01:14:52;100107.06;;;12.92;42.90
73242;BME280;65659;49.234;-2.094;2023-04-15T01:17:18;100102.76;;;12.82;42.75
73242;BME280;65659;49.234;-2.094;2023-04-15T01:19:43;100099.15;;;13.03;42.53
73242;BME280;65659;49.234;-2.094;2023-04-15T01:22:08;100102.21;;;13.24;42.34
73242;BME280;65659;49.234;-2.094;2023-04-15T01:24:35;100105.13;;;12.69;42.14
73242;BME280;65659;49.234;-2.094;2023-04-15T01:26:59;100112.28;;;12.98;42.16
73242;BME280;65659;49.234;-2.094;2023-04-15T01:29:24;100114.71;;;12.96;42.25
73242;BME280;65659;49.234;-2.094;2023-04-15T01:31:50;100117.36;;;12.73;42.27
73242;BME280;65659;49.234;-2.094;2023-04-15T01:34:14;100129.30;;;12.66;42.51
73242;BME280;65659;49.234;-2.094;2023-04-15T01:36:40;100129.93;;;12.56;43.05
73242;BME280;65659;49.234;-2.094;2023-04-15T01:39:05;100131.10;;;12.54;42.58
73242;BME280;65659;49.234;-2.094;2023-04-15T01:41:30;100140.96;;;12.36;42.70
73242;BME280;65659;49.234;-2.094;2023-04-15T01:43:56;100132.59;;;12.53;42.40
73242;BME280;65659;49.234;-2.094;2023-04-15T01:46:22;100142.36;;;12.40;42.45
73242;BME280;65659;49.234;-2.094;2023-04-15T01:48:47;100140.78;;;12.45;42.65
73242;BME280;65659;49.234;-2.094;2023-04-15T01:51:12;100148.96;;;12.57;42.32
73242;BME280;65659;49.234;-2.094;2023-04-15T01:53:37;100156.24;;;12.20;42.36
73242;BME280;65659;49.234;-2.094;2023-04-15T01:56:02;100163.96;;;12.23;42.08
73242;BME280;65659;49.234;-2.094;2023-04-15T01:58:27;100162.37;;;12.90;41.86
73242;BME280;65659;49.234;-2.094;2023-04-15T02:00:52;100156.34;;;12.67;42.46
73242;BME280;65659;49.234;-2.094;2023-04-15T02:03:17;100154.67;;;12.49;42.88
73242;BME280;65659;49.234;-2.094;2023-04-15T02:05:42;100154.23;;;12.48;42.81
73242;BME280;65659;49.234;-2.094;2023-04-15T02:08:08;100155.23;;;12.47;42.97
73242;BME280;65659;49.234;-2.094;2023-04-15T02:10:33;100164.80;;;12.27;42.99
73242;BME280;65659;49.234;-2.094;2023-04-15T02:12:59;100161.72;;;12.49;42.71
73242;BME280;65659;49.234;-2.094;2023-04-15T02:15:24;100158.73;;;12.40;42.42
73242;BME280;65659;49.234;-2.094;2023-04-15T02:17:49;100148.45;;;12.34;42.96
73242;BME280;65659;49.234;-2.094;2023-04-15T02:20:14;100153.57;;;12.29;42.76
73242;BME280;65659;49.234;-2.094;2023-04-15T02:22:39;100158.13;;;12.19;42.68
73242;BME280;65659;49.234;-2.094;2023-04-15T02:25:05;100162.05;;;12.41;42.44
73242;BME280;65659;49.234;-2.094;2023-04-15T02:27:29;100168.71;;;12.45;42.43
73242;BME280;65659;49.234;-2.094;2023-04-15T02:29:54;100168.43;;;12.54;42.17
73242;BME280;65659;49.234;-2.094;2023-04-15T02:32:19;100184.59;;;12.53;42.56
73242;BME280;65659;49.234;-2.094;2023-04-15T02:34:44;100168.86;;;12.44;42.15
73242;BME280;65659;49.234;-2.094;2023-04-15T02:37:11;100166.56;;;12.46;41.59
73242;BME280;65659;49.234;-2.094;2023-04-15T02:39:34;100170.28;;;12.69;41.60
73242;BME280;65659;49.234;-2.094;2023-04-15T02:42:00;100173.34;;;12.49;41.49
73242;BME280;65659;49.234;-2.094;2023-04-15T02:44:26;100181.58;;;12.49;41.26
73242;BME280;65659;49.234;-2.094;2023-04-15T02:46:51;100180.52;;;12.60;41.19
73242;BME280;65659;49.234;-2.094;2023-04-15T02:49:16;100181.91;;;12.36;41.23
73242;BME280;65659;49.234;-2.094;2023-04-15T02:51:42;100182.57;;;12.48;40.67
73242;BME280;65659;49.234;-2.094;2023-04-15T02:54:06;100183.62;;;12.62;39.71
73242;BME280;65659;49.234;-2.094;2023-04-15T02:56:31;100190.83;;;12.66;40.10
73242;BME280;65659;49.234;-2.094;2023-04-15T02:58:56;100192.01;;;12.48;39.89
73242;BME280;65659;49.234;-2.094;2023-04-15T03:01:21;100205.25;;;12.64;39.26
73242;BME280;65659;49.234;-2.094;2023-04-15T03:03:46;100193.46;;;12.65;39.24
73242;BME280;65659;49.234;-2.094;2023-04-15T03:06:11;100196.03;;;12.48;39.25
73242;BME280;65659;49.234;-2.094;2023-04-15T03:08:37;100208.15;;;12.49;39.10
73242;BME280;65659;49.234;-2.094;2023-04-15T03:11:02;100208.54;;;12.55;39.50
73242;BME280;65659;49.234;-2.094;2023-04-15T03:13:27;100224.31;;;12.47;39.58
73242;BME280;65659;49.234;-2.094;2023-04-15T03:15:52;100224.11;;;12.49;39.97
73242;BME280;65659;49.234;-2.094;2023-04-15T03:18:17;100222.60;;;12.80;39.84
73242;BME280;65659;49.234;-2.094;2023-04-15T03:20:42;100225.41;;;12.50;40.32
73242;BME280;65659;49.234;-2.094;2023-04-15T03:23:13;100231.21;;;12.71;40.16
73242;BME280;65659;49.234;-2.094;2023-04-15T03:25:32;100231.94;;;12.60;40.07
73242;BME280;65659;49.234;-2.094;2023-04-15T03:27:58;100232.97;;;12.61;39.85
73242;BME280;65659;49.234;-2.094;2023-04-15T03:30:22;100240.46;;;12.82;39.67
73242;BME280;65659;49.234;-2.094;2023-04-15T03:32:47;100245.03;;;12.67;39.85
73242;BME280;65659;49.234;-2.094;2023-04-15T03:35:12;100251.34;;;12.61;39.67
73242;BME280;65659;49.234;-2.094;2023-04-15T03:37:38;100257.73;;;12.41;39.79
73242;BME280;65659;49.234;-2.094;2023-04-15T03:40:05;100262.95;;;12.24;39.45
73242;BME280;65659;49.234;-2.094;2023-04-15T03:42:29;100264.97;;;12.32;39.93
73242;BME280;65659;49.234;-2.094;2023-04-15T03:44:53;100275.68;;;12.79;39.87
73242;BME280;65659;49.234;-2.094;2023-04-15T03:47:19;100272.05;;;12.59;40.18
73242;BME280;65659;49.234;-2.094;2023-04-15T03:49:44;100279.27;;;12.77;40.57
73242;BME280;65659;49.234;-2.094;2023-04-15T03:52:09;100282.20;;;12.45;40.57
73242;BME280;65659;49.234;-2.094;2023-04-15T03:54:34;100289.85;;;12.49;40.06
73242;BME280;65659;49.234;-2.094;2023-04-15T03:56:59;100293.10;;;12.59;39.85
73242;BME280;65659;49.234;-2.094;2023-04-15T03:59:24;100295.81;;;12.52;39.76
73242;BME280;65659;49.234;-2.094;2023-04-15T04:01:49;100306.10;;;12.17;40.19
73242;BME280;65659;49.234;-2.094;2023-04-15T04:04:14;100304.09;;;12.71;39.90
73242;BME280;65659;49.234;-2.094;2023-04-15T04:06:39;100301.73;;;12.42;39.84
73242;BME280;65659;49.234;-2.094;2023-04-15T04:09:04;100302.27;;;12.48;39.75
73242;BME280;65659;49.234;-2.094;2023-04-15T04:11:29;100309.51;;;12.30;39.59
73242;BME280;65659;49.234;-2.094;2023-04-15T04:13:54;100316.02;;;12.23;39.94
73242;BME280;65659;49.234;-2.094;2023-04-15T04:16:19;100311.36;;;12.80;39.58
73242;BME280;65659;49.234;-2.094;2023-04-15T04:18:45;100320.01;;;12.62;38.84
73242;BME280;65659;49.234;-2.094;2023-04-15T04:21:10;100323.31;;;12.98;38.50
73242;BME280;65659;49.234;-2.094;2023-04-15T04:23:35;100328.86;;;12.75;39.15
73242;BME280;65659;49.234;-2.094;2023-04-15T04:26:01;100339.07;;;12.90;39.00
73242;BME280;65659;49.234;-2.094;2023-04-15T04:28:26;100336.91;;;12.83;39.05
73242;BME280;65659;49.234;-2.094;2023-04-15T04:30:51;100339.29;;;12.60;39.19
73242;BME280;65659;49.234;-2.094;2023-04-15T04:33:16;100341.23;;;12.57;38.99
73242;BME280;65659;49.234;-2.094;2023-04-15T04:35:41;100344.67;;;12.53;38.96
73242;BME280;65659;49.234;-2.094;2023-04-15T04:38:07;100348.14;;;12.89;39.06
73242;BME280;65659;49.234;-2.094;2023-04-15T04:40:32;100355.00;;;12.62;38.93
73242;BME280;65659;49.234;-2.094;2023-04-15T04:42:57;100356.94;;;12.79;39.15
73242;BME280;65659;49.234;-2.094;2023-04-15T04:45:22;100359.44;;;12.34;39.60
73242;BME280;65659;49.234;-2.094;2023-04-15T04:47:47;100361.29;;;12.28;39.59
73242;BME280;65659;49.234;-2.094;2023-04-15T04:50:12;100372.15;;;12.51;39.42
73242;BME280;65659;49.234;-2.094;2023-04-15T04:52:37;100371.29;;;12.49;39.09
73242;BME280;65659;49.234;-2.094;2023-04-15T04:55:03;100373.36;;;12.36;38.99
73242;BME280;65659;49.234;-2.094;2023-04-15T04:57:27;100380.11;;;12.46;39.22
73242;BME280;65659;49.234;-2.094;2023-04-15T04:59:52;100391.45;;;12.69;39.18
73242;BME280;65659;49.234;-2.094;2023-04-15T05:02:17;100394.46;;;12.50;39.36
73242;BME280;65659;49.234;-2.094;2023-04-15T05:04:43;100395.85;;;12.46;39.35
73242;BME280;65659;49.234;-2.094;2023-04-15T05:07:08;100399.59;;;12.53;39.31
73242;BME280;65659;49.234;-2.094;2023-04-15T05:09:33;100396.86;;;12.81;39.30
73242;BME280;65659;49.234;-2.094;2023-04-15T05:12:00;100397.79;;;13.10;39.24
73242;BME280;65659;49.234;-2.094;2023-04-15T05:14:23;100401.77;;;12.81;38.94
73242;BME280;65659;49.234;-2.094;2023-04-15T05:16:48;100409.36;;;13.16;38.61
73242;BME280;65659;49.234;-2.094;2023-04-15T05:19:13;100407.90;;;12.79;38.74
73242;BME280;65659;49.234;-2.094;2023-04-15T05:21:38;100409.50;;;13.08;38.63
73242;BME280;65659;49.234;-2.094;2023-04-15T05:24:04;100419.91;;;12.77;38.99
73242;BME280;65659;49.234;-2.094;2023-04-15T05:26:29;100430.97;;;12.73;38.67
73242;BME280;65659;49.234;-2.094;2023-04-15T05:28:54;100429.68;;;12.79;38.93
73242;BME280;65659;49.234;-2.094;2023-04-15T05:31:19;100431.52;;;13.07;39.11
73242;BME280;65659;49.234;-2.094;2023-04-15T05:33:44;100439.88;;;12.55;39.25
73242;BME280;65659;49.234;-2.094;2023-04-15T05:36:14;100443.64;;;12.80;39.76
73242;BME280;65659;49.234;-2.094;2023-04-15T05:38:34;100447.88;;;12.50;39.82
73242;BME280;65659;49.234;-2.094;2023-04-15T05:40:59;100455.21;;;12.67;40.15
73242;BME280;65659;49.234;-2.094;2023-04-15T05:43:25;100462.87;;;12.81;39.66
73242;BME280;65659;49.234;-2.094;2023-04-15T05:45:50;100459.25;;;12.64;39.67
73242;BME280;65659;49.234;-2.094;2023-04-15T05:48:14;100467.88;;;12.67;39.50
73242;BME280;65659;49.234;-2.094;2023-04-15T05:50:40;100470.75;;;13.08;39.50
73242;BME280;65659;49.234;-2.094;2023-04-15T05:53:05;100477.81;;;12.87;39.92
73242;BME280;65659;49.234;-2.094;2023-04-15T05:55:30;100484.52;;;12.67;40.11
73242;BME280;65659;49.234;-2.094;2023-04-15T05:57:55;100493.68;;;12.80;40.52
73242;BME280;65659;49.234;-2.094;2023-04-15T06:00:20;100484.48;;;12.98;40.54
73242;BME280;65659;49.234;-2.094;2023-04-15T06:05:10;100498.22;;;13.08;40.49
73242;BME280;65659;49.234;-2.094;2023-04-15T06:07:35;100504.14;;;13.21;40.06
73242;BME280;65659;49.234;-2.094;2023-04-15T06:10:00;100513.77;;;13.34;40.18
73242;BME280;65659;49.234;-2.094;2023-04-15T06:12:26;100515.24;;;13.26;39.93
73242;BME280;65659;49.234;-2.094;2023-04-15T06:14:50;100521.25;;;13.66;39.82
73242;BME280;65659;49.234;-2.094;2023-04-15T06:17:16;100526.90;;;13.66;39.99
73242;BME280;65659;49.234;-2.094;2023-04-15T06:19:41;100529.97;;;13.54;39.84
73242;BME280;65659;49.234;-2.094;2023-04-15T06:22:06;100534.72;;;13.11;39.10
73242;BME280;65659;49.234;-2.094;2023-04-15T06:24:31;100542.06;;;13.76;38.39
73242;BME280;65659;49.234;-2.094;2023-04-15T06:26:56;100547.18;;;13.27;38.69
73242;BME280;65659;49.234;-2.094;2023-04-15T06:29:21;100533.66;;;13.76;38.74
73242;BME280;65659;49.234;-2.094;2023-04-15T06:31:47;100532.28;;;13.48;39.27
73242;BME280;65659;49.234;-2.094;2023-04-15T06:34:12;100531.15;;;13.69;38.61
73242;BME280;65659;49.234;-2.094;2023-04-15T06:36:37;100534.31;;;13.63;38.57
73242;BME280;65659;49.234;-2.094;2023-04-15T06:39:07;100536.07;;;13.88;38.52
73242;BME280;65659;49.234;-2.094;2023-04-15T06:41:27;100543.63;;;13.67;38.13
73242;BME280;65659;49.234;-2.094;2023-04-15T06:43:52;100544.54;;;13.50;38.40
73242;BME280;65659;49.234;-2.094;2023-04-15T06:46:17;100543.97;;;13.89;38.59
73242;BME280;65659;49.234;-2.094;2023-04-15T06:48:42;100545.53;;;13.84;38.67
73242;BME280;65659;49.234;-2.094;2023-04-15T06:51:07;100552.13;;;13.90;38.76
73242;BME280;65659;49.234;-2.094;2023-04-15T06:53:32;100560.07;;;13.66;39.18
73242;BME280;65659;49.234;-2.094;2023-04-15T06:55:57;100558.67;;;13.79;39.21
73242;BME280;65659;49.234;-2.094;2023-04-15T06:58:22;100566.30;;;13.83;38.69
73242;BME280;65659;49.234;-2.094;2023-04-15T07:00:48;100581.53;;;13.90;38.58
73242;BME280;65659;49.234;-2.094;2023-04-15T07:03:13;100585.29;;;14.12;38.72
73242;BME280;65659;49.234;-2.094;2023-04-15T07:05:38;100590.56;;;14.14;38.92
73242;BME280;65659;49.234;-2.094;2023-04-15T07:08:03;100593.69;;;14.12;39.05
73242;BME280;65659;49.234;-2.094;2023-04-15T07:10:28;100600.12;;;13.98;38.81
73242;BME280;65659;49.234;-2.094;2023-04-15T07:12:53;100598.67;;;14.27;38.45
73242;BME280;65659;49.234;-2.094;2023-04-15T07:15:19;100602.09;;;14.40;38.55
73242;BME280;65659;49.234;-2.094;2023-04-15T07:17:44;100608.86;;;14.34;38.67
73242;BME280;65659;49.234;-2.094;2023-04-15T07:20:10;100613.16;;;14.42;38.64
73242;BME280;65659;49.234;-2.094;2023-04-15T07:22:39;100618.97;;;14.04;39.14
73242;BME280;65659;49.234;-2.094;2023-04-15T07:24:59;100626.60;;;14.15;39.52
73242;BME280;65659;49.234;-2.094;2023-04-15T07:27:25;100632.50;;;14.15;39.79
73242;BME280;65659;49.234;-2.094;2023-04-15T07:29:50;100635.94;;;13.82;40.19
73242;BME280;65659;49.234;-2.094;2023-04-15T07:32:15;100638.47;;;14.21;40.38
73242;BME280;65659;49.234;-2.094;2023-04-15T07:34:40;100640.78;;;14.02;40.12
73242;BME280;65659;49.234;-2.094;2023-04-15T07:37:05;100647.91;;;14.11;39.36
73242;BME280;65659;49.234;-2.094;2023-04-15T07:39:30;100649.50;;;14.09;39.56
73242;BME280;65659;49.234;-2.094;2023-04-15T07:41:55;100658.97;;;14.29;39.95
73242;BME280;65659;49.234;-2.094;2023-04-15T07:44:20;100655.87;;;13.88;40.35
73242;BME280;65659;49.234;-2.094;2023-04-15T07:46:46;100664.18;;;14.13;40.37
73242;BME280;65659;49.234;-2.094;2023-04-15T07:49:11;100665.70;;;14.09;40.48
73242;BME280;65659;49.234;-2.094;2023-04-15T07:51:36;100664.37;;;14.29;40.43
73242;BME280;65659;49.234;-2.094;2023-04-15T07:54:02;100668.74;;;14.37;40.28
73242;BME280;65659;49.234;-2.094;2023-04-15T07:56:27;100670.72;;;14.09;40.42
73242;BME280;65659;49.234;-2.094;2023-04-15T07:58:52;100674.21;;;14.38;40.58
73242;BME280;65659;49.234;-2.094;2023-04-15T08:01:17;100674.63;;;14.57;40.60
73242;BME280;65659;49.234;-2.094;2023-04-15T08:03:43;100683.89;;;14.45;40.75
73242;BME280;65659;49.234;-2.094;2023-04-15T08:06:08;100688.79;;;14.44;40.73
73242;BME280;65659;49.234;-2.094;2023-04-15T08:08:33;100697.36;;;14.37;40.70
73242;BME280;65659;49.234;-2.094;2023-04-15T08:10:58;100698.93;;;14.44;40.43
73242;BME280;65659;49.234;-2.094;2023-04-15T08:13:24;100701.81;;;14.39;40.09
73242;BME280;65659;49.234;-2.094;2023-04-15T08:18:15;100710.12;;;14.70;40.00
73242;BME280;65659;49.234;-2.094;2023-04-15T08:20:38;100709.00;;;14.90;40.19
73242;BME280;65659;49.234;-2.094;2023-04-15T08:23:04;100717.49;;;14.90;40.65
73242;BME280;65659;49.234;-2.094;2023-04-15T08:25:29;100718.69;;;14.83;40.91
73242;BME280;65659;49.234;-2.094;2023-04-15T08:27:55;100721.00;;;14.82;40.37
73242;BME280;65659;49.234;-2.094;2023-04-15T08:30:19;100721.66;;;15.00;40.05
73242;BME280;65659;49.234;-2.094;2023-04-15T08:32:45;100728.31;;;15.19;39.60
73242;BME280;65659;49.234;-2.094;2023-04-15T08:35:09;100731.66;;;15.31;38.19
73242;BME280;65659;49.234;-2.094;2023-04-15T08:37:34;100737.47;;;14.97;37.52
73242;BME280;65659;49.234;-2.094;2023-04-15T08:39:59;100734.21;;;14.76;37.36
73242;BME280;65659;49.234;-2.094;2023-04-15T08:42:30;100736.26;;;14.94;37.59
73242;BME280;65659;49.234;-2.094;2023-04-15T08:44:50;100757.27;;;14.84;37.47
73242;BME280;65659;49.234;-2.094;2023-04-15T08:47:19;100745.65;;;14.98;37.39
73242;BME280;65659;49.234;-2.094;2023-04-15T08:49:42;100746.17;;;15.36;37.81
73242;BME280;65659;49.234;-2.094;2023-04-15T08:52:06;100757.71;;;14.96;38.01
73242;BME280;65659;49.234;-2.094;2023-04-15T08:54:32;100755.73;;;15.08;37.87
73242;BME280;65659;49.234;-2.094;2023-04-15T08:56:57;100760.20;;;15.17;37.79
73242;BME280;65659;49.234;-2.094;2023-04-15T08:59:23;100768.02;;;15.25;37.73
73242;BME280;65659;49.234;-2.094;2023-04-15T09:01:49;100769.02;;;15.26;37.69
73242;BME280;65659;49.234;-2.094;2023-04-15T09:04:13;100770.10;;;15.16;37.88
73242;BME280;65659;49.234;-2.094;2023-04-15T09:06:39;100781.20;;;15.16;37.80
73242;BME280;65659;49.234;-2.094;2023-04-15T09:09:04;100776.50;;;15.23;37.80
73242;BME280;65659;49.234;-2.094;2023-04-15T09:11:30;100781.95;;;15.21;38.39
73242;BME280;65659;49.234;-2.094;2023-04-15T09:13:56;100786.24;;;15.42;38.44
73242;BME280;65659;49.234;-2.094;2023-04-15T09:16:20;100780.84;;;15.34;38.38
73242;BME280;65659;49.234;-2.094;2023-04-15T09:18:46;100784.25;;;15.54;38.29
73242;BME280;65659;49.234;-2.094;2023-04-15T09:21:13;100789.75;;;15.81;38.08
73242;BME280;65659;49.234;-2.094;2023-04-15T09:23:38;100793.84;;;15.57;38.30
73242;BME280;65659;49.234;-2.094;2023-04-15T09:26:03;100798.95;;;15.54;37.64
73242;BME280;65659;49.234;-2.094;2023-04-15T09:28:28;100806.84;;;15.56;37.09
73242;BME280;65659;49.234;-2.094;2023-04-15T09:30:55;100805.59;;;15.80;37.31
73242;BME280;65659;49.234;-2.094;2023-04-15T09:33:19;100808.35;;;15.72;37.57
73242;BME280;65659;49.234;-2.094;2023-04-15T09:38:10;100823.55;;;15.47;37.09
73242;BME280;65659;49.234;-2.094;2023-04-15T09:40:37;100825.65;;;15.55;37.47
73242;BME280;65659;49.234;-2.094;2023-04-15T09:43:01;100827.21;;;15.55;37.24
73242;BME280;65659;49.234;-2.094;2023-04-15T09:45:28;100825.18;;;15.42;37.63
73242;BME280;65659;49.234;-2.094;2023-04-15T09:47:52;100829.16;;;15.87;37.60
73242;BME280;65659;49.234;-2.094;2023-04-15T09:50:19;100832.71;;;15.77;37.88
73242;BME280;65659;49.234;-2.094;2023-04-15T09:52:43;100842.10;;;15.35;37.91
73242;BME280;65659;49.234;-2.094;2023-04-15T09:55:10;100852.11;;;15.57;37.49
73242;BME280;65659;49.234;-2.094;2023-04-15T09:57:35;100852.90;;;15.64;36.78
73242;BME280;65659;49.234;-2.094;2023-04-15T09:59:59;100855.28;;;15.68;36.68
73242;BME280;65659;49.234;-2.094;2023-04-15T10:02:26;100861.94;;;15.79;37.09
73242;BME280;65659;49.234;-2.094;2023-04-15T10:04:51;100872.18;;;15.93;36.64
73242;BME280;65659;49.234;-2.094;2023-04-15T10:07:16;100864.19;;;15.75;36.41
73242;BME280;65659;49.234;-2.094;2023-04-15T10:09:42;100867.24;;;15.82;36.49
73242;BME280;65659;49.234;-2.094;2023-04-15T10:12:07;100864.73;;;15.77;36.03
73242;BME280;65659;49.234;-2.094;2023-04-15T10:17:01;100873.63;;;16.04;36.53
73242;BME280;65659;49.234;-2.094;2023-04-15T10:19:32;100872.95;;;15.81;36.77
73242;BME280;65659;49.234;-2.094;2023-04-15T10:21:49;100875.23;;;16.06;36.88
73242;BME280;65659;49.234;-2.094;2023-04-15T10:24:14;100881.07;;;16.16;37.05
73242;BME280;65659;49.234;-2.094;2023-04-15T10:26:40;100875.29;;;16.00;36.52
73242;BME280;65659;49.234;-2.094;2023-04-15T10:29:07;100888.61;;;16.13;36.23
73242;BME280;65659;49.234;-2.094;2023-04-15T10:31:31;100892.82;;;16.35;36.75
73242;BME280;65659;49.234;-2.094;2023-04-15T10:33:57;100891.25;;;16.17;36.81
73242;BME280;65659;49.234;-2.094;2023-04-15T10:36:22;100894.51;;;16.03;36.54
73242;BME280;65659;49.234;-2.094;2023-04-15T10:38:48;100886.81;;;15.83;36.58
73242;BME280;65659;49.234;-2.094;2023-04-15T10:41:15;100889.23;;;16.01;36.85
73242;BME280;65659;49.234;-2.094;2023-04-15T10:43:39;100909.17;;;15.89;37.25
73242;BME280;65659;49.234;-2.094;2023-04-15T10:46:04;100906.60;;;15.96;36.82
73242;BME280;65659;49.234;-2.094;2023-04-15T10:48:30;100898.99;;;16.17;36.50
73242;BME280;65659;49.234;-2.094;2023-04-15T10:50:55;100907.57;;;16.11;36.80
73242;BME280;65659;49.234;-2.094;2023-04-15T10:53:26;100905.64;;;16.22;37.21
73242;BME280;65659;49.234;-2.094;2023-04-15T10:55:45;100909.54;;;16.29;37.48
73242;BME280;65659;49.234;-2.094;2023-04-15T10:58:11;100905.57;;;16.35;37.22
73242;BME280;65659;49.234;-2.094;2023-04-15T11:00:37;100902.93;;;16.18;37.05
73242;BME280;65659;49.234;-2.094;2023-04-15T11:03:06;100903.28;;;16.45;37.39
73242;BME280;65659;49.234;-2.094;2023-04-15T11:07:54;100913.57;;;16.27;35.61
73242;BME280;65659;49.234;-2.094;2023-04-15T11:12:44;100923.88;;;16.36;35.45
73242;BME280;65659;49.234;-2.094;2023-04-15T11:15:24;100923.89;;;16.36;36.16
73242;BME280;65659;49.234;-2.094;2023-04-15T11:17:35;100929.38;;;16.62;36.60
73242;BME280;65659;49.234;-2.094;2023-04-15T11:20:00;100925.80;;;16.60;36.29
73242;BME280;65659;49.234;-2.094;2023-04-15T11:22:32;100932.88;;;16.36;36.56
73242;BME280;65659;49.234;-2.094;2023-04-15T11:24:51;100944.81;;;16.39;37.20
73242;BME280;65659;49.234;-2.094;2023-04-15T11:27:21;100943.50;;;16.33;37.39
73242;BME280;65659;49.234;-2.094;2023-04-15T11:29:42;100950.69;;;16.52;37.19
73242;BME280;65659;49.234;-2.094;2023-04-15T11:32:08;100967.41;;;16.57;37.41
73242;BME280;65659;49.234;-2.094;2023-04-15T11:34:39;100957.26;;;16.44;37.05
73242;BME280;65659;49.234;-2.094;2023-04-15T11:37:03;100964.18;;;16.59;36.92
73242;BME280;65659;49.234;-2.094;2023-04-15T11:39:28;100967.42;;;16.50;36.87
73242;BME280;65659;49.234;-2.094;2023-04-15T11:41:50;100963.52;;;16.72;36.73
73242;BME280;65659;49.234;-2.094;2023-04-15T11:44:17;100965.55;;;16.84;37.31
73242;BME280;65659;49.234;-2.094;2023-04-15T11:46:41;100961.52;;;16.95;37.45
73242;BME280;65659;49.234;-2.094;2023-04-15T11:49:07;100968.09;;;17.03;37.05
73242;BME280;65659;49.234;-2.094;2023-04-15T11:51:32;100971.10;;;17.06;36.82
73242;BME280;65659;49.234;-2.094;2023-04-15T11:53:58;100963.66;;;17.13;36.99
73242;BME280;65659;49.234;-2.094;2023-04-15T11:56:25;100958.47;;;17.41;36.69
73242;BME280;65659;49.234;-2.094;2023-04-15T11:58:51;100955.98;;;16.72;36.06
73242;BME280;65659;49.234;-2.094;2023-04-15T12:01:14;100962.63;;;17.21;35.94
73242;BME280;65659;49.234;-2.094;2023-04-15T12:03:42;100964.05;;;17.52;35.67
73242;BME280;65659;49.234;-2.094;2023-04-15T12:06:09;100969.36;;;17.50;34.98
73242;BME280;65659;49.234;-2.094;2023-04-15T12:10:58;100991.03;;;17.67;35.32
73242;BME280;65659;49.234;-2.094;2023-04-15T12:13:22;100983.48;;;17.84;34.83
73242;BME280;65659;49.234;-2.094;2023-04-15T12:15:49;100981.48;;;17.44;35.19
73242;BME280;65659;49.234;-2.094;2023-04-15T12:18:16;100980.50;;;17.65;35.28
73242;BME280;65659;49.234;-2.094;2023-04-15T12:20:43;100976.91;;;17.72;35.36
73242;BME280;65659;49.234;-2.094;2023-04-15T12:23:05;100977.89;;;17.53;35.34
73242;BME280;65659;49.234;-2.094;2023-04-15T12:25:35;100980.13;;;17.64;34.57
73242;BME280;65659;49.234;-2.094;2023-04-15T12:27:55;100986.95;;;17.75;34.43
73242;BME280;65659;49.234;-2.094;2023-04-15T12:30:20;100991.87;;;17.83;34.09
73242;BME280;65659;49.234;-2.094;2023-04-15T12:32:46;100988.63;;;17.93;34.62
73242;BME280;65659;49.234;-2.094;2023-04-15T12:35:11;100989.33;;;18.12;35.35
73242;BME280;65659;49.234;-2.094;2023-04-15T12:37:36;100991.82;;;18.24;34.21
73242;BME280;65659;49.234;-2.094;2023-04-15T12:40:02;100988.04;;;18.27;34.31
73242;BME280;65659;49.234;-2.094;2023-04-15T12:42:28;100999.14;;;18.52;33.82
73242;BME280;65659;49.234;-2.094;2023-04-15T12:44:54;101011.85;;;18.31;33.80
73242;BME280;65659;49.234;-2.094;2023-04-15T12:47:19;101010.96;;;18.30;32.86